createdAt,value
2022-11-10T00:00:50.786Z,97862.44
2022-11-10T00:03:38.517Z,97859.53
2022-11-10T00:06:24.533Z,97860.72
2022-11-10T00:09:10.776Z,97863.13
2022-11-10T00:11:57.055Z,97863.94
2022-11-10T00:15:01.728Z,97869.28
2022-11-10T00:17:47.825Z,97872.63
2022-11-10T00:20:33.867Z,97871.06
2022-11-10T00:23:19.981Z,97879.41
2022-11-10T00:26:15.132Z,97881.22
2022-11-10T00:29:01.383Z,97889.00
2022-11-10T00:31:47.456Z,97891.22
2022-11-10T00:34:33.735Z,97888.34
2022-11-10T00:37:19.954Z,97894.03
2022-11-10T00:40:06.478Z,97897.28
2022-11-10T00:42:52.728Z,97893.59
2022-11-10T00:45:42.378Z,97895.66
2022-11-10T00:48:28.673Z,97904.09
2022-11-10T00:51:28.728Z,97915.19
2022-11-10T00:54:14.897Z,97908.00
2022-11-10T00:57:01.037Z,97908.38
2022-11-10T00:59:46.783Z,97909.22
2022-11-10T01:02:33.076Z,97919.47
2022-11-10T01:05:18.926Z,97918.91
2022-11-10T01:08:05.667Z,97926.28
2022-11-10T01:10:51.905Z,97922.00
2022-11-10T01:13:37.948Z,97933.47
2022-11-10T01:16:29.612Z,97930.66
2022-11-10T01:19:15.817Z,97942.13
2022-11-10T01:22:02.036Z,97937.59
2022-11-10T01:24:48.116Z,97941.53
2022-11-10T01:27:34.111Z,97944.41
2022-11-10T01:30:20.377Z,97949.28
2022-11-10T01:33:06.643Z,97950.91
2022-11-10T01:35:53.148Z,97953.22
2022-11-10T01:38:41.857Z,97955.50
2022-11-10T01:41:27.742Z,97956.19
2022-11-10T01:44:20.378Z,97957.88
2022-11-10T01:47:06.280Z,97966.06
2022-11-10T01:49:52.257Z,97965.25
2022-11-10T01:52:38.564Z,97968.72
2022-11-10T01:55:25.879Z,97964.88
2022-11-10T01:58:15.547Z,97966.59
2022-11-10T02:01:01.500Z,97958.38
2022-11-10T02:03:54.408Z,97967.03
2022-11-10T02:06:43.355Z,97969.91
2022-11-10T02:09:29.166Z,97970.72
2022-11-10T02:12:15.904Z,97981.38
2022-11-10T02:15:02.057Z,97982.44
2022-11-10T02:17:49.138Z,97992.34
2022-11-10T02:20:35.430Z,97980.34
2022-11-10T02:23:30.736Z,97973.41
2022-11-10T02:26:22.152Z,97978.75
2022-11-10T02:29:08.247Z,97980.22
2022-11-10T02:31:54.478Z,97982.09
2022-11-10T02:34:40.830Z,97985.97
2022-11-10T02:37:27.036Z,97987.66
2022-11-10T02:40:13.066Z,97991.78
2022-11-10T02:42:59.129Z,97993.22
2022-11-10T02:45:45.565Z,98008.00
2022-11-10T02:48:31.769Z,98014.16
2022-11-10T02:51:17.797Z,98019.53
2022-11-10T02:54:03.966Z,98015.44
2022-11-10T02:56:50.208Z,98028.13
2022-11-10T02:59:36.014Z,98031.22
2022-11-10T03:02:21.875Z,98036.38
2022-11-10T03:05:07.991Z,98041.09
2022-11-10T03:07:58.517Z,98038.84
2022-11-10T03:10:44.374Z,98050.72
2022-11-10T03:13:45.342Z,98054.22
2022-11-10T03:16:37.083Z,98057.09
2022-11-10T03:19:22.987Z,98063.44
2022-11-10T03:22:08.938Z,98067.13
2022-11-10T03:24:54.797Z,98073.25
2022-11-10T03:27:40.623Z,98085.09
2022-11-10T03:30:27.137Z,98082.06
2022-11-10T03:33:12.957Z,98095.13
2022-11-10T03:35:58.918Z,98090.44
2022-11-10T03:38:44.894Z,98091.25
2022-11-10T03:41:30.799Z,98096.16
2022-11-10T03:44:16.698Z,98100.06
2022-11-10T03:47:04.158Z,98098.81
2022-11-10T03:49:50.103Z,98109.22
2022-11-10T03:52:35.904Z,98109.06
2022-11-10T03:55:21.872Z,98103.75
2022-11-10T03:58:07.798Z,98107.63
2022-11-10T04:00:54.966Z,98111.91
2022-11-10T04:03:41.099Z,98103.94
2022-11-10T04:06:45.442Z,98106.59
2022-11-10T04:09:31.567Z,98115.38
2022-11-10T04:12:36.123Z,98116.63
2022-11-10T04:15:40.934Z,98126.66
2022-11-10T04:18:26.845Z,98134.00
2022-11-10T04:21:13.103Z,98129.91
2022-11-10T04:23:59.447Z,98141.78
2022-11-10T04:26:47.612Z,98144.44
2022-11-10T04:29:33.887Z,98152.81
2022-11-10T04:32:20.148Z,98146.09
2022-11-10T04:35:06.156Z,98144.03
2022-11-10T04:37:52.458Z,98147.31
2022-11-10T04:40:38.368Z,98157.31
2022-11-10T04:43:24.973Z,98160.19
2022-11-10T04:46:34.351Z,98154.66
2022-11-10T04:49:20.397Z,98157.94
2022-11-10T04:52:06.409Z,98157.09
2022-11-10T04:54:52.234Z,98162.63
2022-11-10T04:57:38.427Z,98168.94
2022-11-10T05:00:24.340Z,98170.56
2022-11-10T05:03:12.072Z,98172.81
2022-11-10T05:05:58.008Z,98166.50
2022-11-10T05:08:45.069Z,98169.75
2022-11-10T05:11:31.235Z,98175.28
2022-11-10T05:14:17.370Z,98189.38
2022-11-10T05:17:03.748Z,98196.28
2022-11-10T05:19:50.269Z,98199.94
2022-11-10T05:22:36.298Z,98204.25
2022-11-10T05:25:22.218Z,98206.06
2022-11-10T05:28:10.534Z,98213.00
2022-11-10T05:30:56.876Z,98211.16
2022-11-10T05:33:42.780Z,98222.19
2022-11-10T05:36:28.618Z,98224.03
2022-11-10T05:39:14.538Z,98226.69
2022-11-10T05:42:00.899Z,98229.38
2022-11-10T05:44:47.169Z,98231.63
2022-11-10T05:47:32.954Z,98228.16
2022-11-10T05:50:20.707Z,98227.34
2022-11-10T05:53:06.917Z,98236.13
2022-11-10T05:55:53.073Z,98223.06
2022-11-10T05:58:39.094Z,98237.16
2022-11-10T06:01:25.199Z,98251.66
2022-11-10T06:04:11.128Z,98248.81
2022-11-10T06:06:57.069Z,98256.19
2022-11-10T06:09:43.098Z,98262.31
2022-11-10T06:12:30.517Z,98272.72
2022-11-10T06:15:17.167Z,98275.19
2022-11-10T06:18:03.712Z,98279.47
2022-11-10T06:20:49.939Z,98283.13
2022-11-10T06:23:36.189Z,98289.47
2022-11-10T06:26:22.124Z,98290.72
2022-11-10T06:29:08.258Z,98301.34
2022-11-10T06:31:54.345Z,98308.88
2022-11-10T06:34:40.554Z,98313.78
2022-11-10T06:37:26.642Z,98315.63
2022-11-10T06:40:15.987Z,98332.81
2022-11-10T06:43:02.797Z,98340.97
2022-11-10T06:45:48.986Z,98345.97
2022-11-10T06:48:35.097Z,98353.16
2022-11-10T06:51:21.053Z,98357.00
2022-11-10T06:54:07.189Z,98364.81
2022-11-10T06:56:53.524Z,98367.41
2022-11-10T06:59:39.427Z,98370.94
2022-11-10T07:02:25.348Z,98377.91
2022-11-10T07:05:11.347Z,98384.06
2022-11-10T07:08:02.800Z,98390.00
2022-11-10T07:10:53.818Z,98392.06
2022-11-10T07:13:40.304Z,98403.25
2022-11-10T07:16:26.759Z,98405.03
2022-11-10T07:19:13.052Z,98406.56
2022-11-10T07:21:59.205Z,98413.00
2022-11-10T07:24:45.538Z,98416.72
2022-11-10T07:27:31.436Z,98430.22
2022-11-10T07:30:17.830Z,98438.63
2022-11-10T07:33:06.800Z,98442.09
2022-11-10T07:35:55.929Z,98446.19
2022-11-10T07:38:42.217Z,98454.41
2022-11-10T07:41:28.494Z,98456.44
2022-11-10T07:44:14.668Z,98456.03
2022-11-10T07:47:00.657Z,98461.97
2022-11-10T07:49:46.654Z,98467.94
2022-11-10T07:52:32.676Z,98469.34
2022-11-10T07:55:18.517Z,98481.63
2022-11-10T07:58:05.538Z,98478.31
2022-11-10T08:00:51.508Z,98479.16
2022-11-10T08:03:37.724Z,98482.63
2022-11-10T08:06:23.759Z,98497.38
2022-11-10T08:09:09.623Z,98494.06
2022-11-10T08:11:56.117Z,98497.78
2022-11-10T08:14:42.097Z,98506.38
2022-11-10T08:17:28.038Z,98502.25
2022-11-10T08:20:14.176Z,98506.75
2022-11-10T08:23:06.327Z,98508.56
2022-11-10T08:25:53.887Z,98520.28
2022-11-10T08:28:39.905Z,98521.06
2022-11-10T08:31:25.995Z,98519.19
2022-11-10T08:34:12.217Z,98532.31
2022-11-10T08:36:58.599Z,98532.31
2022-11-10T08:39:44.983Z,98537.81
2022-11-10T08:42:31.088Z,98539.22
2022-11-10T08:45:17.443Z,98537.56
2022-11-10T08:48:18.216Z,98550.88
2022-11-10T08:51:04.458Z,98545.84
2022-11-10T08:53:50.640Z,98551.53
2022-11-10T08:56:36.568Z,98552.31
2022-11-10T08:59:22.407Z,98558.16
2022-11-10T09:02:10.654Z,98557.00
2022-11-10T09:04:56.913Z,98567.25
2022-11-10T09:07:48.044Z,98560.47
2022-11-10T09:10:37.810Z,98578.63
2022-11-10T09:13:29.597Z,98583.97
2022-11-10T09:16:16.434Z,98590.84
2022-11-10T09:19:02.458Z,98585.81
2022-11-10T09:21:48.487Z,98581.66
2022-11-10T09:24:34.582Z,98593.25
2022-11-10T09:27:20.909Z,98600.38
2022-11-10T09:30:11.786Z,98604.00
2022-11-10T09:33:02.027Z,98604.41
2022-11-10T09:35:48.353Z,98606.22
2022-11-10T09:38:35.417Z,98604.31
2022-11-10T09:41:21.545Z,98610.88
2022-11-10T09:44:29.847Z,98627.50
2022-11-10T09:47:55.855Z,98621.91
2022-11-10T09:50:42.152Z,98619.22
2022-11-10T09:53:36.215Z,98622.69
2022-11-10T09:56:32.108Z,98631.91
2022-11-10T09:59:37.026Z,98634.03
2022-11-10T10:02:33.958Z,98638.13
2022-11-10T10:05:46.531Z,98638.28
2022-11-10T10:08:56.937Z,98640.25
2022-11-10T10:11:54.019Z,98643.13
2022-11-10T10:15:00.199Z,98638.06
2022-11-10T10:17:52.218Z,98647.97
2022-11-10T10:20:44.115Z,98652.84
2022-11-10T10:24:08.611Z,98649.13
2022-11-10T10:26:59.928Z,98664.41
2022-11-10T10:29:49.464Z,98650.78
2022-11-10T10:32:35.717Z,98651.88
2022-11-10T10:35:22.670Z,98650.25
2022-11-10T10:38:24.032Z,98652.78
2022-11-10T10:41:20.929Z,98656.50
2022-11-10T10:44:14.188Z,98661.03
2022-11-10T10:47:03.093Z,98658.69
2022-11-10T10:49:49.109Z,98651.22
2022-11-10T10:52:35.190Z,98651.34
2022-11-10T10:55:21.257Z,98640.97
2022-11-10T10:58:20.704Z,98645.00
2022-11-10T11:01:16.456Z,98643.78
2022-11-10T11:04:26.113Z,98648.47
2022-11-10T11:07:24.520Z,98647.59
2022-11-10T11:10:21.107Z,98645.72
2022-11-10T11:13:23.773Z,98657.03
2022-11-10T11:16:12.626Z,98647.84
2022-11-10T11:18:59.160Z,98655.66
2022-11-10T11:21:54.833Z,98648.34
2022-11-10T11:25:03.553Z,98647.41
2022-11-10T11:27:58.550Z,98650.66
2022-11-10T11:31:13.220Z,98658.94
2022-11-10T11:34:14.199Z,98659.16
2022-11-10T11:37:19.652Z,98659.31
2022-11-10T11:40:36.057Z,98668.19
2022-11-10T11:43:59.824Z,98670.88
2022-11-10T11:46:52.096Z,98670.94
2022-11-10T11:50:12.099Z,98676.78
2022-11-10T11:53:13.848Z,98670.63
2022-11-10T11:56:22.535Z,98671.75
2022-11-10T11:59:20.941Z,98678.91
2022-11-10T12:02:52.612Z,98675.44
2022-11-10T12:10:02.088Z,98683.69
2022-11-10T12:13:18.657Z,98679.47
2022-11-10T12:16:26.023Z,98682.84
2022-11-10T12:19:14.995Z,98682.75
2022-11-10T12:22:16.165Z,98680.56
2022-11-10T12:25:19.429Z,98683.00
2022-11-10T12:28:16.326Z,98683.47
2022-11-10T12:31:04.944Z,98694.63
2022-11-10T12:34:00.123Z,98691.34
2022-11-10T12:36:46.420Z,98681.19
2022-11-10T12:39:42.747Z,98697.53
2022-11-10T12:42:31.271Z,98688.72
2022-11-10T12:45:22.014Z,98694.88
2022-11-10T12:48:11.582Z,98695.41
2022-11-10T12:51:12.694Z,98706.03
2022-11-10T12:53:59.029Z,98701.72
2022-11-10T12:56:53.819Z,98704.00
2022-11-10T12:59:42.910Z,98701.41
2022-11-10T13:02:44.003Z,98704.84
2022-11-10T13:05:33.322Z,98706.38
2022-11-10T13:08:24.626Z,98698.72
2022-11-10T13:11:14.030Z,98706.94
2022-11-10T13:14:02.716Z,98706.53
2022-11-10T13:16:56.389Z,98708.19
2022-11-10T13:19:50.429Z,98708.16
2022-11-10T13:22:41.080Z,98706.69
2022-11-10T13:25:36.845Z,98713.16
2022-11-10T13:28:47.769Z,98722.81
2022-11-10T13:31:33.816Z,98719.34
2022-11-10T13:34:20.042Z,98711.03
2022-11-10T13:37:24.946Z,98717.38
2022-11-10T13:40:25.097Z,98724.31
2022-11-10T13:43:25.532Z,98734.56
2022-11-10T13:46:11.699Z,98732.97
2022-11-10T13:49:16.750Z,98749.31
2022-11-10T13:52:13.995Z,98744.97
2022-11-10T13:55:13.177Z,98755.22
2022-11-10T13:58:10.260Z,98753.78
2022-11-10T14:01:17.938Z,98755.59
2022-11-10T14:04:05.043Z,98753.28
2022-11-10T14:06:55.189Z,98760.16
2022-11-10T14:09:45.680Z,98765.59
2022-11-10T14:12:40.743Z,98769.78
2022-11-10T14:15:40.856Z,98767.53
2022-11-10T14:18:37.347Z,98769.66
2022-11-10T14:21:36.616Z,98765.81
2022-11-10T14:24:28.678Z,98764.84
2022-11-10T14:27:21.387Z,98775.75
2022-11-10T14:30:26.551Z,98777.84
2022-11-10T14:33:14.536Z,98784.44
2022-11-10T14:36:04.001Z,98790.41
2022-11-10T14:38:52.622Z,98798.66
2022-11-10T14:41:47.491Z,98808.09
2022-11-10T14:44:35.218Z,98811.22
2022-11-10T14:47:31.382Z,98817.19
2022-11-10T14:50:25.180Z,98817.19
2022-11-10T14:53:37.440Z,98835.28
2022-11-10T14:56:32.233Z,98832.41
2022-11-10T14:59:20.438Z,98836.72
2022-11-10T15:02:15.710Z,98832.59
2022-11-10T15:05:02.822Z,98823.97
2022-11-10T15:07:51.701Z,98821.31
2022-11-10T15:10:37.715Z,98820.03
2022-11-10T15:13:32.077Z,98825.75
2022-11-10T15:16:28.631Z,98820.41
2022-11-10T15:19:21.140Z,98826.34
2022-11-10T15:22:18.431Z,98831.66
2022-11-10T15:25:17.006Z,98835.75
2022-11-10T15:28:14.481Z,98837.16
2022-11-10T15:31:10.998Z,98839.81
2022-11-10T15:34:03.059Z,98847.19
2022-11-10T15:36:49.399Z,98860.28
2022-11-10T15:39:36.966Z,98870.94
2022-11-10T15:42:24.896Z,98870.09
2022-11-10T15:45:10.820Z,98870.50
2022-11-10T15:47:57.020Z,98865.75
2022-11-10T15:50:45.916Z,98867.34
2022-11-10T15:53:39.074Z,98868.38
2022-11-10T15:56:25.649Z,98873.25
2022-11-10T15:59:12.103Z,98875.44
2022-11-10T16:01:59.191Z,98902.28
2022-11-10T16:04:45.848Z,98898.38
2022-11-10T16:07:31.662Z,98908.97
2022-11-10T16:10:17.728Z,98902.38
2022-11-10T16:13:04.109Z,98910.94
2022-11-10T16:15:50.878Z,98912.56
2022-11-10T16:18:41.226Z,98911.28
2022-11-10T16:21:29.654Z,98914.97
2022-11-10T16:24:15.654Z,98918.66
2022-11-10T16:27:01.965Z,98917.19
2022-11-10T16:29:47.985Z,98927.34
2022-11-10T16:32:34.184Z,98930.25
2022-11-10T16:35:20.078Z,98931.03
2022-11-10T16:38:26.641Z,98931.66
2022-11-10T16:41:15.142Z,98931.03
2022-11-10T16:44:01.045Z,98944.53
2022-11-10T16:46:53.395Z,98943.44
2022-11-10T16:49:44.424Z,98955.09
2022-11-10T16:52:30.862Z,98953.84
2022-11-10T16:55:17.145Z,98952.31
2022-11-10T16:58:02.943Z,98958.81
2022-11-10T17:00:49.552Z,98958.22
2022-11-10T17:03:48.984Z,98964.16
2022-11-10T17:06:35.014Z,98956.59
2022-11-10T17:09:26.765Z,98963.16
2022-11-10T17:12:13.712Z,98972.72
2022-11-10T17:14:59.527Z,98963.25
2022-11-10T17:17:47.930Z,98971.88
2022-11-10T17:20:38.028Z,98965.66
2022-11-10T17:23:26.360Z,98967.59
2022-11-10T17:26:18.151Z,98975.31
2022-11-10T17:29:04.344Z,98971.19
2022-11-10T17:31:50.686Z,98977.88
2022-11-10T17:34:36.885Z,98982.75
2022-11-10T17:37:22.888Z,98986.03
2022-11-10T17:40:20.155Z,98974.75
2022-11-10T17:43:06.021Z,98978.25
2022-11-10T17:45:52.131Z,98986.59
2022-11-10T17:48:38.192Z,98995.78
2022-11-10T17:51:24.537Z,98995.59
2022-11-10T17:54:13.744Z,98997.41
2022-11-10T17:56:59.661Z,99007.41
2022-11-10T17:59:45.661Z,98996.78
2022-11-10T18:02:31.620Z,99004.94
2022-11-10T18:05:18.501Z,99007.59
2022-11-10T18:08:04.955Z,98999.81
2022-11-10T18:10:52.745Z,98997.78
2022-11-10T18:13:40.438Z,98994.47
2022-11-10T18:16:27.255Z,98997.50
2022-11-10T18:19:13.451Z,98995.88
2022-11-10T18:21:59.794Z,99002.22
2022-11-10T18:24:45.865Z,99003.03
2022-11-10T18:27:32.221Z,99003.84
2022-11-10T18:30:19.299Z,99000.38
2022-11-10T18:33:05.945Z,99008.34
2022-11-10T18:35:52.499Z,99014.09
2022-11-10T18:38:38.533Z,99014.09
2022-11-10T18:41:43.006Z,99021.25
2022-11-10T18:44:29.700Z,99022.63
2022-11-10T18:47:15.765Z,99029.78
2022-11-10T18:50:02.233Z,99039.78
2022-11-10T18:52:48.555Z,99033.63
2022-11-10T18:55:34.366Z,99036.75
2022-11-10T18:58:20.235Z,99037.28
2022-11-10T19:01:07.767Z,99034.25
2022-11-10T19:03:53.778Z,99038.13
2022-11-10T19:06:40.509Z,99041.59
2022-11-10T19:09:26.274Z,99043.44
2022-11-10T19:12:13.060Z,99040.41
2022-11-10T19:14:58.996Z,99048.56
2022-11-10T19:17:45.074Z,99045.53
2022-11-10T19:20:30.915Z,99044.00
2022-11-10T19:23:17.906Z,99038.03
2022-11-10T19:26:07.005Z,99044.59
2022-11-10T19:28:56.984Z,99044.00
2022-11-10T19:31:44.185Z,99050.50
2022-11-10T19:34:31.725Z,99049.03
2022-11-10T19:37:18.133Z,99053.31
2022-11-10T19:40:04.578Z,99058.00
2022-11-10T19:42:50.533Z,99057.66
2022-11-10T19:45:36.504Z,99065.63
2022-11-10T19:48:22.570Z,99067.44
2022-11-10T19:51:11.621Z,99062.09
2022-11-10T19:54:05.573Z,99065.97
2022-11-10T19:56:51.824Z,99059.00
2022-11-10T19:59:37.724Z,99065.63
2022-11-10T20:02:23.485Z,99055.25
2022-11-10T20:05:16.824Z,99053.16
2022-11-10T20:08:11.137Z,99056.06
2022-11-10T20:11:08.125Z,99068.81
2022-11-10T20:13:57.064Z,99071.47
2022-11-10T20:16:42.937Z,99068.81
2022-11-10T20:19:28.891Z,99066.69
2022-11-10T20:22:14.881Z,99072.84
2022-11-10T20:25:00.911Z,99068.34
2022-11-10T20:27:47.216Z,99066.31
2022-11-10T20:30:36.086Z,99071.47
2022-11-10T20:33:22.502Z,99072.00
2022-11-10T20:36:21.071Z,99081.81
2022-11-10T20:39:07.205Z,99084.09
2022-11-10T20:41:53.371Z,99088.44
2022-11-10T20:44:39.544Z,99105.19
2022-11-10T20:47:28.104Z,99112.97
2022-11-10T20:50:16.400Z,99118.28
2022-11-10T20:53:06.005Z,99112.69
2022-11-10T20:56:02.230Z,99108.97
2022-11-10T20:58:49.246Z,99100.69
2022-11-10T21:01:35.534Z,99098.88
2022-11-10T21:04:21.364Z,99096.66
2022-11-10T21:07:07.384Z,99091.34
2022-11-10T21:09:53.427Z,99087.88
2022-11-10T21:12:51.474Z,99080.53
2022-11-10T21:15:41.016Z,99081.81
2022-11-10T21:18:30.002Z,99077.06
2022-11-10T21:21:26.486Z,99084.91
2022-11-10T21:24:12.459Z,99082.09
2022-11-10T21:26:58.914Z,99086.47
2022-11-10T21:29:45.325Z,99095.31
2022-11-10T21:32:31.092Z,99099.75
2022-11-10T21:35:17.550Z,99102.72
2022-11-10T21:38:05.061Z,99101.16
2022-11-10T21:40:50.934Z,99100.41
2022-11-10T21:43:38.851Z,99095.66
2022-11-10T21:46:24.986Z,99100.50
2022-11-10T21:49:11.039Z,99106.81
2022-11-10T21:51:57.314Z,99105.63
2022-11-10T21:54:43.250Z,99111.75
2022-11-10T21:57:29.284Z,99107.84
2022-11-10T22:00:15.381Z,99113.97
2022-11-10T22:03:03.756Z,99108.03
2022-11-10T22:05:49.783Z,99113.34
2022-11-10T22:08:36.873Z,99106.72
2022-11-10T22:11:41.532Z,99111.75
2022-11-10T22:14:45.958Z,99118.34
2022-11-10T22:17:50.737Z,99131.22
2022-11-10T22:20:36.973Z,99124.78
2022-11-10T22:23:43.045Z,99115.34
2022-11-10T22:26:28.963Z,99118.00
2022-11-10T22:29:14.887Z,99127.63
2022-11-10T22:32:02.299Z,99130.28
2022-11-10T22:34:48.263Z,99133.34
2022-11-10T22:37:34.283Z,99153.03
2022-11-10T22:40:38.653Z,99155.66
2022-11-10T22:43:43.398Z,99156.22
2022-11-10T22:46:31.691Z,99154.03
2022-11-10T22:49:23.027Z,99155.88
2022-11-10T22:52:09.422Z,99145.72
2022-11-10T22:54:57.332Z,99151.47
2022-11-10T22:57:43.433Z,99143.72
2022-11-10T23:00:29.331Z,99135.75
2022-11-10T23:03:15.758Z,99137.75
2022-11-10T23:06:01.563Z,99136.19
2022-11-10T23:08:47.528Z,99139.78
2022-11-10T23:11:34.560Z,99136.31
2022-11-10T23:14:20.672Z,99141.81
2022-11-10T23:17:06.573Z,99139.41
2022-11-10T23:19:52.608Z,99136.59
2022-11-10T23:22:38.421Z,99141.91
2022-11-10T23:25:24.437Z,99140.13
2022-11-10T23:28:10.377Z,99139.50
2022-11-10T23:31:04.622Z,99144.28
2022-11-10T23:33:52.842Z,99143.56
2022-11-10T23:36:39.102Z,99139.63
2022-11-10T23:39:25.081Z,99128.69
2022-11-10T23:42:11.032Z,99129.16
2022-11-10T23:44:57.174Z,99122.03
2022-11-10T23:47:43.069Z,99126.34
2022-11-10T23:50:29.162Z,99136.13
2022-11-10T23:53:15.828Z,99141.16
2022-11-10T23:56:05.738Z,99143.88
2022-11-10T23:58:52.105Z,99147.72
